createdAt,value
2023-02-02T00:01:55.361Z,92.86
2023-02-02T00:06:58.922Z,93.18
2023-02-02T00:12:01.961Z,93.26
2023-02-02T00:17:05.125Z,93.28
2023-02-02T00:22:08.065Z,93.63
2023-02-02T00:28:07.913Z,93.65
2023-02-02T00:33:10.786Z,93.68
2023-02-02T00:38:13.640Z,93.69
2023-02-02T00:43:16.564Z,93.57
2023-02-02T00:48:19.500Z,93.84
2023-02-02T00:53:22.613Z,93.87
2023-02-02T00:58:25.432Z,94.05
2023-02-02T01:03:28.327Z,94.05
2023-02-02T01:08:31.256Z,94.24
2023-02-02T01:13:34.559Z,94.05
2023-02-02T01:18:37.936Z,94.23
2023-02-02T01:23:40.993Z,94.23
2023-02-02T01:28:44.007Z,94.10
2023-02-02T01:33:48.188Z,94.37
2023-02-02T01:38:51.529Z,95.16
2023-02-02T01:44:03.834Z,95.00
2023-02-02T01:49:13.383Z,94.87
2023-02-02T01:54:35.661Z,94.57
2023-02-02T01:59:38.670Z,94.75
2023-02-02T02:04:42.561Z,95.36
2023-02-02T02:09:45.532Z,95.85
2023-02-02T02:15:08.871Z,96.04
2023-02-02T02:21:32.025Z,97.16
2023-02-02T02:27:10.025Z,97.98
2023-02-02T02:32:27.406Z,98.35
2023-02-02T02:37:38.942Z,99.14
2023-02-02T02:42:46.500Z,99.09
2023-02-02T02:47:49.640Z,99.17
2023-02-02T02:53:05.592Z,99.33
2023-02-02T02:58:17.408Z,99.28
2023-02-02T03:03:26.357Z,99.04
2023-02-02T03:08:33.275Z,99.31
2023-02-02T03:13:37.704Z,99.44
2023-02-02T03:18:40.626Z,99.86
2023-02-02T03:23:43.476Z,100.00
2023-02-02T03:28:46.344Z,99.95
2023-02-02T03:33:49.369Z,99.86
2023-02-02T03:38:52.290Z,99.85
2023-02-02T03:43:55.243Z,100.00
2023-02-02T03:48:58.204Z,100.00
2023-02-02T03:54:01.053Z,100.00
2023-02-02T03:59:03.889Z,100.00
2023-02-02T04:04:06.742Z,100.00
2023-02-02T04:09:09.673Z,100.00
2023-02-02T04:14:12.617Z,99.93
2023-02-02T04:19:16.844Z,99.99
2023-02-02T04:24:19.735Z,99.99
2023-02-02T04:29:22.542Z,100.00
2023-02-02T04:34:25.954Z,99.94
2023-02-02T04:39:30.930Z,99.71
2023-02-02T04:44:33.915Z,99.81
2023-02-02T04:49:37.099Z,99.62
2023-02-02T04:54:40.067Z,99.77
2023-02-02T04:59:42.979Z,98.97
2023-02-02T05:04:46.633Z,98.70
2023-02-02T05:09:50.135Z,98.59
2023-02-02T05:14:53.121Z,98.51
2023-02-02T05:19:56.036Z,98.51
2023-02-02T05:24:58.915Z,98.45
2023-02-02T05:30:02.123Z,98.19
2023-02-02T05:35:05.833Z,98.03
2023-02-02T05:40:11.100Z,97.94
2023-02-02T05:45:14.123Z,98.06
2023-02-02T05:50:17.218Z,98.11
2023-02-02T05:55:20.584Z,97.97
2023-02-02T06:00:23.621Z,98.05
2023-02-02T06:05:26.657Z,98.03
2023-02-02T06:10:31.639Z,98.02
2023-02-02T06:15:34.973Z,98.04
2023-02-02T06:20:38.298Z,98.08
2023-02-02T06:25:41.403Z,97.82
2023-02-02T06:30:44.379Z,97.81
2023-02-02T06:35:47.469Z,97.72
2023-02-02T06:40:50.397Z,97.83
2023-02-02T06:45:53.313Z,97.88
2023-02-02T06:50:59.795Z,97.97
2023-02-02T06:56:07.022Z,98.06
2023-02-02T07:01:14.268Z,98.09
2023-02-02T07:06:22.807Z,98.06
2023-02-02T07:11:25.906Z,97.76
2023-02-02T07:16:30.591Z,97.86
2023-02-02T07:21:36.430Z,98.12
2023-02-02T07:26:39.697Z,98.35
2023-02-02T07:31:42.907Z,98.32
2023-02-02T07:36:45.958Z,98.47
2023-02-02T07:41:48.843Z,98.64
2023-02-02T07:46:51.776Z,98.91
2023-02-02T07:51:55.034Z,99.00
2023-02-02T07:57:02.216Z,98.74
2023-02-02T08:02:05.203Z,98.72
2023-02-02T08:07:08.320Z,99.12
2023-02-02T08:12:11.222Z,99.23
2023-02-02T08:17:15.399Z,99.39
2023-02-02T08:22:20.261Z,99.55
2023-02-02T08:27:23.450Z,99.50
2023-02-02T08:32:27.655Z,99.43
2023-02-02T08:37:30.695Z,99.68
2023-02-02T08:42:33.650Z,99.08
2023-02-02T08:47:38.364Z,99.00
2023-02-02T08:52:46.455Z,98.99
2023-02-02T08:57:49.850Z,99.27
2023-02-02T09:02:52.766Z,99.16
2023-02-02T09:07:55.995Z,99.31
2023-02-02T09:12:58.811Z,99.13
2023-02-02T09:18:01.617Z,99.09
2023-02-02T09:23:04.536Z,98.96
2023-02-02T09:28:07.467Z,99.03
2023-02-02T09:33:10.604Z,98.85
2023-02-02T09:38:14.236Z,98.97
2023-02-02T09:43:30.749Z,99.10
2023-02-02T09:48:43.957Z,98.79
2023-02-02T09:53:56.185Z,98.81
2023-02-02T09:59:27.764Z,98.81
2023-02-02T10:04:40.547Z,98.79
2023-02-02T10:10:13.602Z,98.21
2023-02-02T10:15:40.126Z,98.11
2023-02-02T10:20:51.633Z,98.48
2023-02-02T10:26:20.475Z,98.35
2023-02-02T10:32:06.151Z,98.44
2023-02-02T10:37:42.489Z,98.56
2023-02-02T10:43:32.212Z,98.75
2023-02-02T10:48:35.965Z,98.48
2023-02-02T10:53:40.444Z,98.37
2023-02-02T10:59:03.057Z,98.12
2023-02-02T11:04:24.988Z,98.63
2023-02-02T11:09:31.939Z,98.32
2023-02-02T11:15:07.539Z,97.31
2023-02-02T11:20:34.491Z,98.28
2023-02-02T11:25:37.930Z,98.70
2023-02-02T11:30:50.756Z,98.62
2023-02-02T11:36:04.484Z,98.52
2023-02-02T11:41:11.070Z,98.14
2023-02-02T11:46:25.873Z,98.91
2023-02-02T11:51:29.923Z,99.38
2023-02-02T11:56:32.854Z,99.26
2023-02-02T12:01:44.136Z,99.77
2023-02-02T12:06:48.155Z,99.69
2023-02-02T12:12:06.612Z,99.77
2023-02-02T12:17:46.457Z,98.92
2023-02-02T12:23:19.338Z,98.85
2023-02-02T12:28:48.338Z,98.21
2023-02-02T12:33:57.679Z,98.22
2023-02-02T12:39:08.473Z,98.69
2023-02-02T12:44:29.564Z,98.67
2023-02-02T12:49:45.670Z,99.70
2023-02-02T12:55:01.028Z,99.99
2023-02-02T13:00:42.610Z,99.84
2023-02-02T13:06:23.706Z,99.95
2023-02-02T13:11:53.438Z,99.71
2023-02-02T13:17:01.875Z,100.00
2023-02-02T13:22:39.238Z,100.00
2023-02-02T13:27:55.097Z,98.48
2023-02-02T13:33:07.653Z,97.05
2023-02-02T13:38:24.228Z,97.41
2023-02-02T13:44:01.540Z,97.02
2023-02-02T13:49:24.254Z,97.53
2023-02-02T13:55:15.737Z,96.94
2023-02-02T14:00:35.014Z,96.35
2023-02-02T14:05:40.707Z,95.44
2023-02-02T14:11:05.998Z,95.07
2023-02-02T14:16:22.906Z,94.19
2023-02-02T14:21:34.959Z,93.64
2023-02-02T14:26:50.122Z,93.58
2023-02-02T14:31:54.400Z,93.31
2023-02-02T14:37:06.680Z,93.50
2023-02-02T14:42:40.770Z,93.15
2023-02-02T14:48:20.627Z,92.73
2023-02-02T14:53:33.569Z,92.84
2023-02-02T14:58:46.918Z,93.16
2023-02-02T15:03:56.656Z,92.61
2023-02-02T15:09:26.672Z,92.28
2023-02-02T15:14:38.148Z,90.94
2023-02-02T15:19:43.893Z,90.64
2023-02-02T15:24:49.127Z,90.92
2023-02-02T15:30:13.818Z,90.41
2023-02-02T15:35:24.747Z,90.81
2023-02-02T15:40:30.638Z,90.17
2023-02-02T15:45:48.040Z,89.57
2023-02-02T15:50:55.950Z,90.07
2023-02-02T15:56:00.392Z,88.94
2023-02-02T16:01:14.600Z,88.41
2023-02-02T16:06:17.682Z,88.30
2023-02-02T16:11:25.891Z,88.56
2023-02-02T16:16:32.221Z,88.29
2023-02-02T16:21:38.679Z,88.81
2023-02-02T16:26:41.781Z,89.42
2023-02-02T16:31:48.159Z,89.63
2023-02-02T16:37:07.640Z,89.63
2023-02-02T16:42:22.039Z,89.37
2023-02-02T16:47:28.489Z,89.08
2023-02-02T16:52:31.386Z,88.81
2023-02-02T16:57:34.629Z,88.28
2023-02-02T17:02:40.062Z,87.56
2023-02-02T17:07:51.954Z,87.49
2023-02-02T17:12:54.874Z,87.57
2023-02-02T17:17:58.610Z,87.37
2023-02-02T17:23:07.010Z,87.01
2023-02-02T17:28:11.609Z,87.37
2023-02-02T17:33:16.931Z,88.19
2023-02-02T17:38:21.600Z,88.26
2023-02-02T17:43:24.507Z,88.55
2023-02-02T17:48:27.410Z,88.99
2023-02-02T17:53:33.380Z,89.08
2023-02-02T17:58:37.795Z,89.20
2023-02-02T18:03:40.991Z,89.39
2023-02-02T18:08:45.622Z,89.19
2023-02-02T18:13:48.616Z,89.17
2023-02-02T18:18:51.595Z,89.11
2023-02-02T18:23:54.509Z,88.93
2023-02-02T18:28:57.476Z,88.53
2023-02-02T18:34:00.324Z,88.22
2023-02-02T18:39:03.353Z,88.33
2023-02-02T18:44:06.735Z,88.47
2023-02-02T18:49:10.889Z,88.27
2023-02-02T18:54:13.959Z,88.46
2023-02-02T18:59:16.900Z,88.61
2023-02-02T19:04:19.919Z,88.71
2023-02-02T19:09:22.892Z,88.34
2023-02-02T19:14:33.357Z,88.06
2023-02-02T19:19:40.511Z,87.61
2023-02-02T19:24:43.769Z,87.57
2023-02-02T19:29:48.471Z,87.54
2023-02-02T19:34:57.941Z,87.18
2023-02-02T19:40:14.344Z,86.95
2023-02-02T19:45:26.983Z,86.93
2023-02-02T19:50:41.177Z,86.73
2023-02-02T19:55:44.445Z,86.54
2023-02-02T20:00:49.647Z,86.92
2023-02-02T20:05:53.293Z,86.78
2023-02-02T20:10:58.966Z,86.88
2023-02-02T20:16:04.291Z,87.37
2023-02-02T20:21:17.646Z,88.09
2023-02-02T20:26:34.790Z,88.22
2023-02-02T20:31:38.270Z,88.44
2023-02-02T20:36:43.185Z,88.29
2023-02-02T20:41:46.036Z,87.72
2023-02-02T20:46:48.942Z,87.31
2023-02-02T20:51:56.614Z,87.14
2023-02-02T20:57:00.041Z,87.22
2023-02-02T21:02:03.770Z,86.43
2023-02-02T21:07:07.245Z,86.35
2023-02-02T21:12:10.328Z,86.49
2023-02-02T21:17:15.627Z,86.72
2023-02-02T21:22:19.048Z,86.51
2023-02-02T21:27:21.985Z,86.82
2023-02-02T21:32:25.115Z,86.92
2023-02-02T21:37:28.189Z,87.28
2023-02-02T21:42:31.063Z,87.38
2023-02-02T21:47:36.254Z,87.47
2023-02-02T21:52:39.158Z,87.46
2023-02-02T21:57:44.454Z,87.41
2023-02-02T22:02:48.724Z,87.19
2023-02-02T22:07:53.426Z,87.29
2023-02-02T22:12:56.328Z,87.54
2023-02-02T22:18:00.173Z,87.60
2023-02-02T22:23:04.611Z,88.19
2023-02-02T22:28:23.625Z,88.32
2023-02-02T22:33:26.942Z,88.59
2023-02-02T22:38:30.011Z,89.31
2023-02-02T22:43:32.974Z,89.25
2023-02-02T22:48:35.986Z,89.51
2023-02-02T22:53:38.869Z,89.43
2023-02-02T22:58:41.787Z,89.59
2023-02-02T23:03:45.069Z,89.23
2023-02-02T23:08:49.227Z,89.57
2023-02-02T23:13:52.179Z,89.56
2023-02-02T23:18:55.094Z,89.42
2023-02-02T23:23:57.934Z,89.04
2023-02-02T23:29:00.870Z,88.96
2023-02-02T23:34:03.748Z,89.05
2023-02-02T23:39:06.602Z,88.91
2023-02-02T23:44:09.572Z,88.54
2023-02-02T23:49:12.467Z,87.83
2023-02-02T23:54:15.873Z,87.86
2023-02-02T23:59:19.066Z,88.10
